Time;durP1;ratioP1;P1;durP2;ratioP2;P2;SDS_P1;SDS_P2;PMS_P1;PMS_P2;Temp;Humidity;BMP_temperature;BMP_pressure;BME280_temperature;BME280_humidity;BME280_pressure;Samples;Min_cycle;Max_cycle;Signal;HPM_P1;HPM_P2
2022/05/08 00:04:15;;;;;;;57.00;35.45;;;11.40;99.90;;;;;;10487669;28;20036;-85
2022/05/08 00:09:16;;;;;;;64.75;38.70;;;11.40;99.90;;;;;;10491407;28;20040;-86
2022/05/08 00:14:16;;;;;;;66.55;41.47;;;11.30;99.90;;;;;;10496474;28;20051;-85
2022/05/08 00:19:17;;;;;;;66.55;43.42;;;11.20;99.90;;;;;;10478817;28;20565;-86
2022/05/08 00:24:18;;;;;;;67.93;43.17;;;11.10;99.90;;;;;;10495002;28;20060;-85
2022/05/08 00:29:18;;;;;;;77.90;47.65;;;10.90;99.90;;;;;;10483981;28;20131;-86
2022/05/08 00:34:19;;;;;;;72.40;43.00;;;10.90;99.90;;;;;;10479939;28;20040;-85
2022/05/08 00:39:20;;;;;;;68.57;43.28;;;10.80;99.90;;;;;;10486371;28;20038;-86
2022/05/08 00:44:20;;;;;;;73.07;44.17;;;10.70;99.90;;;;;;10495089;28;20027;-86
2022/05/08 00:49:21;;;;;;;79.75;49.03;;;10.60;99.90;;;;;;10494311;28;20403;-86
2022/05/08 00:54:22;;;;;;;83.47;51.58;;;10.60;99.90;;;;;;10483402;28;20036;-86
2022/05/08 00:59:23;;;;;;;74.35;45.65;;;10.50;99.90;;;;;;10493708;28;20097;-86
2022/05/08 01:04:23;;;;;;;74.35;47.70;;;10.40;99.90;;;;;;10493295;28;20060;-86
2022/05/08 01:09:24;;;;;;;74.68;47.95;;;10.40;99.90;;;;;;10480120;28;20032;-86
2022/05/08 01:14:25;;;;;;;72.78;48.10;;;10.30;99.90;;;;;;10493530;28;20025;-86
2022/05/08 01:19:25;;;;;;;75.68;47.70;;;10.30;99.90;;;;;;10492418;28;20555;-86
2022/05/08 01:24:26;;;;;;;80.60;48.33;;;10.30;99.90;;;;;;10476119;28;20056;-86
2022/05/08 01:29:27;;;;;;;73.53;44.53;;;10.20;99.90;;;;;;10492297;28;20403;-86
2022/05/08 01:34:27;;;;;;;78.73;48.80;;;10.10;99.90;;;;;;10492258;28;20032;-86
2022/05/08 01:39:28;;;;;;;79.93;48.47;;;10.00;99.90;;;;;;10493484;28;20115;-86
2022/05/08 01:44:28;;;;;;;87.50;50.93;;;10.00;99.90;;;;;;10491991;28;20036;-86
2022/05/08 01:49:32;;;;;;;101.60;57.63;;;9.90;99.90;;;;;;10492860;28;20377;-86
2022/05/08 01:54:33;;;;;;;91.23;52.33;;;9.80;99.90;;;;;;10476694;28;20035;-85
2022/05/08 01:59:33;;;;;;;117.37;65.93;;;9.70;99.90;;;;;;10474199;28;20036;-86
2022/05/08 02:04:34;;;;;;;92.00;54.63;;;9.60;99.90;;;;;;10491073;28;20083;-86
2022/05/08 02:09:35;;;;;;;87.90;50.43;;;9.50;99.90;;;;;;10491149;28;20051;-86
2022/05/08 02:14:35;;;;;;;102.80;56.80;;;9.50;99.90;;;;;;10490957;28;20028;-86
2022/05/08 02:19:36;;;;;;;106.00;60.63;;;9.60;99.90;;;;;;10490670;28;20405;-85
2022/05/08 02:24:36;;;;;;;110.47;64.17;;;9.50;99.90;;;;;;10481235;28;20423;-86
2022/05/08 02:29:37;;;;;;;94.20;56.80;;;9.50;99.90;;;;;;10471150;28;20052;-86
2022/05/08 02:34:37;;;;;;;119.70;68.17;;;9.40;99.90;;;;;;10488995;28;20036;-85
2022/05/08 02:39:38;;;;;;;120.17;73.10;;;9.40;99.90;;;;;;10490841;28;20036;-86
2022/05/08 02:44:38;;;;;;;121.20;70.67;;;9.30;99.90;;;;;;10488468;28;20032;-86
2022/05/08 02:49:39;;;;;;;113.53;68.23;;;9.30;99.90;;;;;;10474014;28;20533;-86
2022/05/08 02:54:40;;;;;;;115.07;70.03;;;9.30;99.90;;;;;;10489332;28;20094;-86
2022/05/08 02:59:40;;;;;;;107.67;63.43;;;9.20;99.90;;;;;;10488468;28;20120;-86
2022/05/08 03:04:41;;;;;;;90.53;55.97;;;9.20;99.90;;;;;;10472287;28;20032;-85
2022/05/08 03:09:42;;;;;;;106.53;62.83;;;9.20;99.90;;;;;;10488551;28;20045;-85
2022/05/08 03:14:42;;;;;;;137.73;70.67;;;9.20;99.90;;;;;;10488305;28;20040;-86
2022/05/08 03:19:43;;;;;;;118.63;67.03;;;9.20;99.90;;;;;;10488244;28;20037;-85
2022/05/08 03:24:43;;;;;;;104.53;65.17;;;9.10;99.90;;;;;;10487325;28;20059;-86
2022/05/08 03:29:44;;;;;;;141.27;75.83;;;9.20;99.90;;;;;;10469739;28;20066;-86
2022/05/08 03:34:45;;;;;;;103.60;63.27;;;9.40;99.90;;;;;;10487855;28;20036;-85
2022/05/08 03:39:45;;;;;;;94.47;60.83;;;9.50;99.90;;;;;;10488054;28;20044;-86
2022/05/08 03:44:46;;;;;;;103.60;64.13;;;9.70;99.90;;;;;;10485541;28;20024;-86
2022/05/08 03:49:46;;;;;;;93.50;60.33;;;9.80;99.90;;;;;;10485164;28;20044;-86
2022/05/08 03:54:47;;;;;;;98.03;62.13;;;10.00;99.90;;;;;;10487041;28;20094;-85
2022/05/08 03:59:48;;;;;;;93.77;59.30;;;10.10;99.90;;;;;;10487595;28;20032;-86
2022/05/08 04:04:48;;;;;;;99.38;63.50;;;10.20;99.90;;;;;;10470819;28;20048;-86
2022/05/08 04:09:49;;;;;;;103.17;65.97;;;10.20;99.90;;;;;;10487213;28;20036;-86
2022/05/08 04:14:50;;;;;;;94.77;59.33;;;10.30;99.90;;;;;;10486609;28;20028;-87
2022/05/08 04:19:50;;;;;;;113.55;69.80;;;10.40;99.90;;;;;;10468743;28;20368;-86
2022/05/08 04:24:51;;;;;;;100.88;64.03;;;10.40;99.90;;;;;;10486230;28;20052;-87
2022/05/08 04:29:52;;;;;;;102.65;64.93;;;10.50;99.90;;;;;;10468213;28;20040;-88
2022/05/08 04:34:52;;;;;;;102.25;65.18;;;10.70;99.90;;;;;;10484187;28;20099;-86
2022/05/08 04:39:53;;;;;;;94.20;63.90;;;10.90;99.90;;;;;;10486942;28;20423;-87
2022/05/08 04:44:54;;;;;;;91.22;62.28;;;11.20;99.90;;;;;;10466635;28;20028;-87
2022/05/08 04:49:55;;;;;;;102.93;67.15;;;11.40;99.90;;;;;;10475313;28;20567;-88
2022/05/08 04:54:56;;;;;;;96.50;64.65;;;11.70;99.90;;;;;;10489242;28;20033;-86
2022/05/08 04:59:57;;;;;;;90.78;61.42;;;11.90;99.90;;;;;;10494204;28;20036;-87
2022/05/08 05:04:59;;;;;;;86.95;59.65;;;12.10;99.90;;;;;;10468318;28;20032;-87
2022/05/08 05:10:00;;;;;;;78.15;50.88;;;12.30;99.90;;;;;;10493783;28;20044;-87
2022/05/08 05:15:01;;;;;;;76.97;53.00;;;12.40;99.90;;;;;;10474797;28;20417;-89
2022/05/08 05:20:03;;;;;;;71.82;51.75;;;12.70;99.90;;;;;;10489083;28;20533;-87
2022/05/08 05:25:04;;;;;;;70.07;47.97;;;12.80;99.90;;;;;;10459283;28;20048;-87
2022/05/08 05:30:05;;;;;;;67.13;46.92;;;13.00;99.90;;;;;;10485596;28;20040;-87
2022/05/08 05:35:06;;;;;;;70.78;47.97;;;13.10;99.90;;;;;;10474836;28;20093;-88
2022/05/08 05:40:07;;;;;;;64.50;45.50;;;13.10;99.90;;;;;;10491544;28;20137;-90
2022/05/08 05:45:08;;;;;;;56.22;39.55;;;13.30;99.90;;;;;;10466629;28;20484;-88
2022/05/08 05:50:09;;;;;;;54.65;37.60;;;13.40;99.90;;;;;;10471232;28;20056;-88
2022/05/08 05:55:10;;;;;;;52.40;36.90;;;13.60;99.90;;;;;;10466474;28;20028;-89
2022/05/08 06:00:13;;;;;;;50.22;34.28;;;13.70;99.90;;;;;;10489576;28;20028;-87
2022/05/08 06:05:14;;;;;;;41.40;31.83;;;13.90;99.90;;;;;;10450203;28;20052;-87
2022/05/08 06:10:15;;;;;;;42.10;29.52;;;14.00;99.90;;;;;;10462956;28;20530;-87
2022/05/08 06:15:15;;;;;;;39.65;27.50;;;14.20;99.90;;;;;;10464588;28;20488;-86
2022/05/08 06:20:16;;;;;;;35.90;24.45;;;14.30;99.90;;;;;;10470623;28;20027;-88
2022/05/08 06:25:17;;;;;;;34.50;24.33;;;14.50;99.90;;;;;;10471515;28;20055;-85
2022/05/08 06:30:18;;;;;;;26.45;19.90;;;14.80;99.90;;;;;;10489106;28;20036;-84
2022/05/08 06:35:18;;;;;;;34.50;24.88;;;14.90;99.90;;;;;;10489911;28;20036;-85
2022/05/08 06:40:19;;;;;;;33.42;22.27;;;15.20;99.90;;;;;;10490431;28;20035;-86
2022/05/08 06:45:24;;;;;;;31.25;21.73;;;15.60;99.90;;;;;;10488530;28;20036;-86
2022/05/08 06:50:24;;;;;;;31.40;23.50;;;15.80;99.90;;;;;;10488660;28;20048;-85
2022/05/08 06:55:25;;;;;;;35.78;24.60;;;16.10;99.90;;;;;;10489842;28;20269;-85
2022/05/08 07:05:47;;;;;;;29.60;21.17;;;17.60;99.90;;;;;;10463095;28;20036;-86
2022/05/08 07:10:47;;;;;;;25.25;17.92;;;19.20;95.90;;;;;;10488332;28;20040;-87
2022/05/08 07:15:48;;;;;;;25.73;17.70;;;20.10;90.10;;;;;;10487128;28;20527;-86
2022/05/08 07:20:49;;;;;;;19.40;14.45;;;20.70;88.30;;;;;;10481593;28;20036;-87
2022/05/08 07:25:50;;;;;;;23.88;15.43;;;21.20;78.00;;;;;;10462600;28;20052;-88
2022/05/08 07:30:50;;;;;;;19.25;12.68;;;21.30;75.90;;;;;;10482065;28;20076;-87
2022/05/08 07:41:14;;;;;;;22.90;14.68;;;20.80;76.00;;;;;;10487750;28;20021;-87
2022/05/08 07:46:15;;;;;;;22.48;15.18;;;20.50;74.70;;;;;;10475982;28;20043;-87
2022/05/08 07:51:16;;;;;;;17.00;12.05;;;20.50;76.40;;;;;;10488322;28;20370;-88
2022/05/08 07:56:16;;;;;;;20.20;11.98;;;20.60;74.60;;;;;;10488366;28;20028;-88
2022/05/08 08:01:17;;;;;;;17.50;9.75;;;20.80;74.70;;;;;;10487356;28;20111;-88
2022/05/08 08:06:18;;;;;;;13.23;8.48;;;21.10;73.80;;;;;;10487454;28;20028;-87
2022/05/08 08:11:18;;;;;;;17.13;9.38;;;21.30;71.30;;;;;;10486775;28;20049;-89
2022/05/08 08:16:19;;;;;;;17.45;10.57;;;21.40;71.30;;;;;;10486399;28;20612;-87
2022/05/08 08:21:20;;;;;;;15.05;9.57;;;21.70;68.30;;;;;;10487822;28;20468;-87
2022/05/08 08:26:20;;;;;;;20.60;10.13;;;21.50;69.20;;;;;;10485985;28;20048;-87
2022/05/08 08:31:22;;;;;;;16.27;9.95;;;21.00;68.10;;;;;;10492487;28;20079;-87
2022/05/08 08:36:22;;;;;;;24.00;11.05;;;21.00;68.50;;;;;;10495108;28;20055;-86
2022/05/08 08:41:29;;;;;;;19.55;9.77;;;21.60;66.60;;;;;;10494267;28;20039;-87
2022/05/08 08:51:51;;;;;;;9.30;4.70;;;22.50;64.90;;;;;;10492700;28;20052;-87
2022/05/08 08:56:51;;;;;;;12.30;6.50;;;23.00;65.40;;;;;;10493632;28;20029;-86
2022/05/08 09:01:52;;;;;;;9.57;6.18;;;23.10;62.30;;;;;;10492566;28;20090;-86
2022/05/08 09:06:53;;;;;;;9.68;5.97;;;23.00;61.00;;;;;;10471612;28;20021;-86
2022/05/08 09:11:55;;;;;;;9.00;5.68;;;23.00;58.10;;;;;;10489011;28;20076;-88
2022/05/08 09:16:56;;;;;;;10.18;5.03;;;22.30;57.40;;;;;;10470817;28;20021;-86
2022/05/08 09:22:00;;;;;;;7.28;5.07;;;22.10;59.40;;;;;;10493833;28;20082;-86
2022/05/08 09:27:17;;;;;;;9.55;5.57;;;22.50;60.80;;;;;;10492675;28;20052;-86
2022/05/08 09:32:36;;;;;;;8.18;5.45;;;22.00;56.30;;;;;;10472925;28;20032;-86
2022/05/08 09:37:54;;;;;;;6.05;4.93;;;21.20;60.80;;;;;;10460172;28;20021;-87
2022/05/08 09:42:55;;;;;;;6.53;4.93;;;20.70;61.00;;;;;;10471603;28;20060;-87
2022/05/08 09:47:57;;;;;;;7.18;4.72;;;20.70;62.50;;;;;;10491554;28;20134;-88
2022/05/08 09:52:59;;;;;;;6.05;4.25;;;21.30;64.70;;;;;;10491458;28;20037;-86
2022/05/08 09:58:00;;;;;;;8.10;5.07;;;21.40;62.50;;;;;;10473557;28;20047;-87
2022/05/08 10:03:02;;;;;;;10.63;4.40;;;22.10;58.90;;;;;;10489860;28;20376;-87
2022/05/08 10:08:04;;;;;;;7.03;5.05;;;22.60;57.60;;;;;;10472589;28;20031;-87
2022/05/08 10:13:53;;;;;;;6.40;4.80;;;22.80;56.40;;;;;;10491060;28;20029;-90
2022/05/08 10:18:54;;;;;;;7.05;4.10;;;23.30;56.90;;;;;;10487379;28;20524;-89
2022/05/08 10:23:55;;;;;;;6.13;3.97;;;23.70;53.80;;;;;;10490758;28;20055;-87
2022/05/08 10:29:02;;;;;;;6.45;3.38;;;24.20;55.50;;;;;;10472383;28;20031;-89
2022/05/08 10:34:05;;;;;;;4.78;3.40;;;24.70;56.60;;;;;;10489732;28;20037;-88
2022/05/08 10:39:38;;;;;;;6.10;3.83;;;25.00;52.40;;;;;;10488725;28;20671;-87
2022/05/08 10:44:42;;;;;;;5.38;3.83;;;25.20;54.30;;;;;;10489836;28;20116;-89
2022/05/08 10:49:45;;;;;;;4.27;3.17;;;25.50;56.80;;;;;;10489810;28;20055;-88
2022/05/08 10:55:02;;;;;;;5.55;3.58;;;25.10;52.40;;;;;;10488075;28;20498;-91
2022/05/08 11:00:09;;;;;;;4.22;3.38;;;25.20;55.30;;;;;;10482891;28;20036;-87
2022/05/08 11:05:11;;;;;;;4.72;3.75;;;25.20;52.90;;;;;;10489121;28;20234;-90
2022/05/08 11:10:22;;;;;;;5.32;3.75;;;24.60;50.30;;;;;;10480026;28;20036;-89
2022/05/08 11:15:23;;;;;;;6.30;3.83;;;24.20;53.70;;;;;;10488329;28;20170;-87
2022/05/08 11:20:24;;;;;;;5.72;3.63;;;23.70;55.70;;;;;;10488110;28;20082;-87
2022/05/08 11:25:25;;;;;;;6.03;3.85;;;23.00;53.60;;;;;;10485726;28;20040;-88
2022/05/08 11:30:27;;;;;;;4.50;3.80;;;22.70;55.40;;;;;;10481138;28;20089;-89
2022/05/08 11:40:47;;;;;;;8.45;3.70;;;21.80;55.30;;;;;;10484846;28;20111;-86
2022/05/08 11:45:58;;;;;;;4.97;3.60;;;21.80;57.80;;;;;;10488280;28;20036;-87
2022/05/08 11:50:58;;;;;;;4.20;3.10;;;22.60;56.40;;;;;;10487995;28;20054;-88
2022/05/08 11:55:59;;;;;;;6.47;3.75;;;23.30;58.90;;;;;;10469959;28;20045;-88
2022/05/08 12:01:00;;;;;;;5.22;3.30;;;24.20;53.90;;;;;;10475023;28;20108;-90
2022/05/08 12:06:12;;;;;;;5.07;3.63;;;24.00;51.30;;;;;;10468928;28;20119;-89
2022/05/08 12:11:26;;;;;;;3.47;2.80;;;24.10;51.80;;;;;;10468769;28;20047;-88
2022/05/08 12:16:37;;;;;;;;;;;;;;;;;;;;;
2022/05/08 12:22:24;;;;;;;3.33;2.72;;;24.60;50.00;;;;;;10486318;28;20410;-90
2022/05/08 12:27:24;;;;;;;4.80;3.05;;;24.40;51.00;;;;;;10485465;28;20044;-88
2022/05/08 12:32:26;;;;;;;4.35;3.20;;;24.10;54.00;;;;;;10435233;28;20477;-90
2022/05/08 12:37:27;;;;;;;4.95;3.42;;;23.90;54.40;;;;;;10469674;28;20024;-89
2022/05/08 12:42:27;;;;;;;4.20;3.35;;;23.50;55.40;;;;;;10461139;28;20037;-88
2022/05/08 12:47:28;;;;;;;5.43;3.45;;;22.70;55.70;;;;;;10463934;28;20028;-88
2022/05/08 12:52:29;;;;;;;4.57;3.80;;;22.40;56.90;;;;;;10468673;28;20063;-91
2022/05/08 13:02:49;;;;;;;5.65;3.25;;;22.10;59.20;;;;;;10487317;28;20040;-89
2022/05/08 13:07:49;;;;;;;3.42;3.13;;;22.10;55.30;;;;;;10467732;28;20040;-91
2022/05/08 13:12:50;;;;;;;3.97;2.83;;;21.90;55.80;;;;;;10469202;28;20178;-89
2022/05/08 13:17:54;;;;;;;4.25;3.05;;;21.80;57.00;;;;;;10489944;28;20017;-90
2022/05/08 13:22:54;;;;;;;5.55;3.17;;;22.10;58.70;;;;;;10494836;28;20032;-86
2022/05/08 13:28:04;;;;;;;4.72;2.85;;;22.90;59.40;;;;;;10495271;28;20761;-90
2022/05/08 13:33:05;;;;;;;3.67;3.00;;;23.40;55.90;;;;;;10460181;28;20554;-88
2022/05/08 13:38:10;;;;;;;4.25;3.17;;;23.30;51.20;;;;;;10493509;28;20028;-90
2022/05/08 13:43:11;;;;;;;3.40;3.00;;;23.10;54.40;;;;;;10474339;28;20403;-88
2022/05/08 13:48:16;;;;;;;3.80;3.17;;;22.90;55.50;;;;;;10490729;28;20026;-89
2022/05/08 13:53:19;;;;;;;4.00;3.00;;;23.00;56.70;;;;;;10492371;28;20040;-88
2022/05/08 13:58:19;;;;;;;4.43;3.03;;;22.70;54.90;;;;;;10491046;28;20127;-88
2022/05/08 14:03:21;;;;;;;5.72;3.28;;;22.70;56.30;;;;;;10491796;28;20043;-88
2022/05/08 14:08:22;;;;;;;4.22;3.15;;;22.90;58.50;;;;;;10475244;28;20051;-88
2022/05/08 14:13:23;;;;;;;4.85;3.33;;;23.00;53.80;;;;;;10501172;28;20135;-91
2022/05/08 14:18:23;;;;;;;5.40;3.30;;;22.70;55.10;;;;;;10504498;28;20060;-87
2022/05/08 14:23:24;;;;;;;6.78;4.10;;;22.40;54.70;;;;;;10485400;28;20144;-87
2022/05/08 14:28:25;;;;;;;4.30;3.15;;;22.20;54.80;;;;;;10494529;28;20599;-88
2022/05/08 14:38:46;;;;;;;3.65;3.30;;;22.50;58.50;;;;;;10490686;28;20471;-87
2022/05/08 14:43:50;;;;;;;3.58;2.97;;;22.70;53.50;;;;;;10472249;28;20032;-88
2022/05/08 14:48:51;;;;;;;6.15;3.05;;;22.70;54.00;;;;;;10474944;28;20039;-87
2022/05/08 14:53:52;;;;;;;6.32;3.38;;;22.70;55.90;;;;;;10471108;28;20695;-88
2022/05/08 14:58:55;;;;;;;5.82;3.30;;;22.10;56.90;;;;;;10472214;28;20107;-89
2022/05/08 15:04:00;;;;;;;4.85;3.40;;;21.40;57.70;;;;;;10489112;28;20029;-88
2022/05/08 15:09:04;;;;;;;4.93;3.40;;;21.00;59.40;;;;;;10489336;28;20043;-88
2022/05/08 15:14:05;;;;;;;4.68;3.05;;;20.70;60.50;;;;;;10488957;28;20031;-89
2022/05/08 15:19:06;;;;;;;6.45;3.75;;;20.60;61.30;;;;;;10489881;28;20028;-90
2022/05/08 15:24:10;;;;;;;5.30;3.25;;;20.40;61.90;;;;;;10470751;28;20082;-86
2022/05/08 15:29:10;;;;;;;4.13;3.15;;;20.50;60.50;;;;;;10480651;28;20067;-86
2022/05/08 15:34:12;;;;;;;4.95;3.28;;;20.70;59.90;;;;;;10477854;28;20028;-88
2022/05/08 15:39:13;;;;;;;10.18;3.47;;;20.80;60.60;;;;;;10468312;28;20399;-92
2022/05/08 15:44:15;;;;;;;6.03;3.30;;;21.10;59.90;;;;;;10441633;28;20040;-88
2022/05/08 15:49:17;;;;;;;6.60;3.72;;;21.30;61.30;;;;;;10459341;28;20041;-88
2022/05/08 15:54:17;;;;;;;7.60;4.20;;;21.40;60.70;;;;;;10469947;28;20029;-88
2022/05/08 15:59:18;;;;;;;10.45;4.38;;;21.40;63.40;;;;;;10469785;28;20412;-88
2022/05/08 16:04:21;;;;;;;6.25;3.67;;;21.30;63.50;;;;;;10458323;28;20025;-90
2022/05/08 16:09:22;;;;;;;6.60;3.65;;;21.10;65.50;;;;;;10448998;28;20110;-90
2022/05/08 16:25:03;;;;;;;6.07;3.92;;;20.40;65.10;;;;;;10468146;28;20056;-88
2022/05/08 16:30:05;;;;;;;6.93;4.50;;;20.20;65.60;;;;;;10460010;28;20695;-90
2022/05/08 16:35:07;;;;;;;7.57;4.20;;;20.20;66.50;;;;;;10468374;28;20032;-90
2022/05/08 16:40:09;;;;;;;5.97;3.50;;;20.30;66.40;;;;;;10479583;28;20395;-88
2022/05/08 16:45:11;;;;;;;4.78;3.70;;;20.20;65.30;;;;;;10485755;28;20033;-89
2022/05/08 16:50:12;;;;;;;5.28;3.53;;;19.90;65.40;;;;;;10485879;28;20102;-89
2022/05/08 16:55:12;;;;;;;6.05;3.95;;;19.90;67.30;;;;;;10440665;28;20039;-87
2022/05/08 17:06:51;;;;;;;;;;;;;;;;;;;;;
2022/05/08 17:23:55;;;;;;;7.22;5.45;;;19.20;71.60;;;;;;10481475;28;20049;-88
2022/05/08 17:28:56;;;;;;;10.93;5.47;;;19.00;71.40;;;;;;10474319;28;20051;-87
2022/05/08 17:33:58;;;;;;;6.72;3.85;;;18.80;71.40;;;;;;10486201;28;20032;-86
2022/05/08 17:38:59;;;;;;;6.18;3.70;;;18.60;72.30;;;;;;10492422;28;20039;-86
2022/05/08 17:44:00;;;;;;;7.80;4.20;;;18.40;72.80;;;;;;10474882;28;20035;-83
2022/05/08 17:49:00;;;;;;;5.38;3.78;;;18.20;72.80;;;;;;10492422;28;20052;-85
2022/05/08 17:54:01;;;;;;;5.78;3.95;;;17.90;74.10;;;;;;10463690;28;20029;-87
2022/05/08 17:59:03;;;;;;;6.57;3.70;;;17.80;74.20;;;;;;10467388;28;20039;-86
2022/05/08 18:09:23;;;;;;;5.40;3.88;;;17.50;75.30;;;;;;10484108;28;20505;-86
2022/05/08 18:14:24;;;;;;;6.63;3.70;;;17.40;75.10;;;;;;10472297;28;20021;-85
2022/05/08 18:19:25;;;;;;;6.40;3.80;;;17.30;76.10;;;;;;10463884;28;20440;-85
2022/05/08 18:24:27;;;;;;;6.57;4.03;;;17.10;76.40;;;;;;10461077;28;20497;-85
2022/05/08 18:29:27;;;;;;;6.70;4.60;;;17.00;77.70;;;;;;10483808;28;20050;-86
2022/05/08 18:34:28;;;;;;;14.52;6.57;;;16.80;78.60;;;;;;10479295;28;20025;-86
2022/05/08 18:39:32;;;;;;;12.27;6.35;;;16.60;82.50;;;;;;10469957;28;20097;-86
2022/05/08 18:44:32;;;;;;;10.68;5.13;;;16.40;85.70;;;;;;10489434;28;20032;-85
2022/05/08 18:49:33;;;;;;;25.80;10.90;;;16.20;88.60;;;;;;10487484;28;20044;-86
2022/05/08 18:54:34;;;;;;;16.27;6.70;;;16.00;90.30;;;;;;10489974;28;20028;-85
2022/05/08 18:59:34;;;;;;;19.42;8.30;;;15.70;91.50;;;;;;10469090;28;20023;-86
2022/05/08 19:04:35;;;;;;;27.30;11.88;;;15.50;92.90;;;;;;10481716;28;20028;-85
2022/05/08 19:09:36;;;;;;;16.85;8.02;;;15.20;96.40;;;;;;10482042;28;20033;-85
2022/05/08 19:14:37;;;;;;;21.35;9.40;;;15.00;98.90;;;;;;10476847;28;20059;-87
2022/05/08 19:19:39;;;;;;;14.55;7.40;;;14.90;99.90;;;;;;10485284;28;20163;-86
2022/05/08 19:24:40;;;;;;;18.50;10.20;;;14.80;99.90;;;;;;10475675;28;20053;-86
2022/05/08 19:29:41;;;;;;;17.60;8.90;;;14.80;99.90;;;;;;10480678;28;20032;-87
2022/05/08 19:40:01;;;;;;;17.08;9.00;;;14.90;99.90;;;;;;10480398;28;20036;-87
2022/05/08 19:45:03;;;;;;;9.85;5.78;;;14.80;99.90;;;;;;10468065;28;20040;-87
2022/05/08 19:50:04;;;;;;;11.48;6.30;;;14.90;99.90;;;;;;10482412;28;20109;-88
2022/05/08 19:55:06;;;;;;;11.32;5.90;;;14.90;99.90;;;;;;10488176;28;20099;-87
2022/05/08 20:00:07;;;;;;;9.40;5.45;;;14.90;99.90;;;;;;10455559;28;20099;-87
2022/05/08 20:05:11;;;;;;;7.65;5.55;;;14.90;99.90;;;;;;10449345;28;20079;-88
2022/05/08 20:10:19;;;;;;;8.73;5.57;;;14.80;99.90;;;;;;10460514;28;20124;-87
2022/05/08 20:15:27;;;;;;;6.93;4.65;;;14.80;99.90;;;;;;10463507;28;20776;-89
2022/05/08 20:25:47;;;;;;;10.73;5.70;;;14.60;99.90;;;;;;10470541;28;20428;-90
2022/05/08 20:30:48;;;;;;;11.05;6.82;;;14.50;99.90;;;;;;10464217;28;20033;-89
2022/05/08 20:35:50;;;;;;;10.02;6.13;;;14.40;99.90;;;;;;10477508;28;20213;-89
2022/05/08 20:40:50;;;;;;;7.75;5.60;;;14.30;99.90;;;;;;10477443;28;20031;-89
2022/05/08 20:45:51;;;;;;;9.27;6.25;;;14.30;99.90;;;;;;10478809;28;20475;-89
2022/05/08 20:50:51;;;;;;;8.73;5.95;;;14.30;99.90;;;;;;10444395;28;20044;-88
2022/05/08 20:55:52;;;;;;;8.65;5.63;;;14.40;99.90;;;;;;10474231;28;20036;-87
2022/05/08 21:00:53;;;;;;;10.18;6.18;;;14.30;99.90;;;;;;10485679;28;20033;-87
2022/05/08 21:11:12;;;;;;;15.38;10.15;;;14.20;99.90;;;;;;10493856;28;20060;-89
2022/05/08 21:16:13;;;;;;;17.42;10.10;;;14.20;99.90;;;;;;10475273;28;20465;-88
2022/05/08 21:21:14;;;;;;;13.82;8.10;;;14.10;99.90;;;;;;10493599;28;20032;-88
2022/05/08 21:26:15;;;;;;;18.58;10.48;;;14.10;99.90;;;;;;10493080;28;20681;-88
2022/05/08 21:31:16;;;;;;;10.70;7.75;;;14.20;99.90;;;;;;10493167;28;20040;-88
2022/05/08 21:36:16;;;;;;;12.05;7.75;;;14.20;99.90;;;;;;10491294;28;20040;-88
2022/05/08 21:41:17;;;;;;;10.35;7.10;;;14.30;99.90;;;;;;10475051;28;20028;-87
2022/05/08 21:46:18;;;;;;;10.68;7.57;;;14.30;99.90;;;;;;10490677;28;20177;-89
2022/05/08 21:51:20;;;;;;;12.02;8.45;;;14.30;99.90;;;;;;10492457;28;20040;-88
2022/05/08 21:56:22;;;;;;;15.98;9.70;;;14.30;99.90;;;;;;10491210;28;20020;-88
2022/05/08 22:01:22;;;;;;;17.85;9.15;;;14.20;99.90;;;;;;10473275;28;20474;-87
2022/05/08 22:06:23;;;;;;;15.52;9.88;;;14.20;99.90;;;;;;10492825;28;20031;-87
2022/05/08 22:11:24;;;;;;;14.07;9.20;;;14.10;99.90;;;;;;10491675;28;20029;-88
2022/05/08 22:16:24;;;;;;;11.77;9.55;;;14.00;99.90;;;;;;10490920;28;20028;-88
2022/05/08 22:21:25;;;;;;;13.73;8.48;;;14.00;99.90;;;;;;10490782;28;20036;-88
2022/05/08 22:26:25;;;;;;;14.05;9.15;;;13.90;99.90;;;;;;10490908;28;20047;-88
2022/05/08 22:31:26;;;;;;;18.23;11.18;;;13.90;99.90;;;;;;10485914;28;20048;-88
2022/05/08 22:36:27;;;;;;;14.38;9.20;;;13.90;99.90;;;;;;10485013;28;20047;-88
2022/05/08 22:41:28;;;;;;;15.18;10.73;;;13.80;99.90;;;;;;10483750;28;20093;-87
2022/05/08 22:46:29;;;;;;;13.85;9.40;;;13.80;99.90;;;;;;10490352;28;20033;-87
2022/05/08 22:51:33;;;;;;;13.65;9.85;;;13.80;99.90;;;;;;10489893;28;20415;-88
2022/05/08 22:56:34;;;;;;;16.33;10.35;;;13.70;99.90;;;;;;10488625;28;20130;-89
2022/05/08 23:01:34;;;;;;;16.73;10.38;;;13.70;99.90;;;;;;10480297;28;20071;-87
2022/05/08 23:06:35;;;;;;;11.43;8.00;;;13.60;99.90;;;;;;10462246;28;20040;-88
2022/05/08 23:11:36;;;;;;;13.45;8.35;;;13.50;99.90;;;;;;10477073;28;20036;-88
2022/05/08 23:16:36;;;;;;;9.45;7.20;;;13.40;99.90;;;;;;10470613;28;20537;-88
2022/05/08 23:21:37;;;;;;;12.13;8.00;;;13.20;99.90;;;;;;10489173;28;20036;-88
2022/05/08 23:26:37;;;;;;;10.38;8.10;;;13.10;99.90;;;;;;10480345;28;20686;-88
2022/05/08 23:31:41;;;;;;;11.48;8.05;;;12.90;99.90;;;;;;10488542;28;20463;-87
2022/05/08 23:36:41;;;;;;;11.00;7.90;;;12.70;99.90;;;;;;10488321;28;20031;-88
2022/05/08 23:41:42;;;;;;;13.10;9.07;;;12.40;99.90;;;;;;10488537;28;20379;-87
2022/05/08 23:46:42;;;;;;;16.38;9.70;;;12.20;99.90;;;;;;10488047;28;20105;-88
2022/05/08 23:51:43;;;;;;;14.70;9.23;;;12.00;99.90;;;;;;10487630;28;20128;-88
2022/05/08 23:56:46;;;;;;;14.82;9.65;;;11.90;99.90;;;;;;10488642;28;20029;-88
